METAR Data
IDs: Format: Raw Decoded Include TAF

Data at: 1632 UTC 18 Feb 2019

METAR for:KFOD (Fort Dodge Rgnl, IA, US)
Text:KFOD 181556Z AUTO 31007KT 10SM CLR M12/M17 A3044 RMK AO2 SLP361 T11221172 FZRANO
Temperature:-12.2°C ( 10°F)
Dewpoint:-17.2°C ( 1°F) [RH = 66%]
Pressure (altimeter):30.44 inches Hg (1030.9 mb) [Sea level pressure: 1036.1 mb]
Winds:from the NW (310 degrees) at 8 MPH (7 knots; 3.6 m/s)
Visibility:10 or more sm (16+ km)
Ceiling:at least 12,000 feet AGL
Clouds:sky clear below 12,000 feet AGL
QC Flag:automated observation with no human augmentation